Time;durP1;ratioP1;P1;durP2;ratioP2;P2;SDS_P1;SDS_P2;PMS_P1;PMS_P2;Temp;Humidity;BMP_temperature;BMP_pressure;BME280_temperature;BME280_humidity;BME280_pressure;Samples;Min_cycle;Max_cycle;Signal;HPM_P1;HPM_P2
2021/03/24 04:14:21;;;;;;;0.82;0.68;;;4.60;97.60;;;;;;5092522;28;20056;-65
2021/03/24 04:16:47;;;;;;;2.28;0.80;;;4.60;97.40;;;;;;5080507;28;20036;-65
2021/03/24 04:19:16;;;;;;;0.90;0.70;;;4.50;97.40;;;;;;5093534;28;20121;-65
2021/03/24 04:21:45;;;;;;;1.02;0.70;;;4.50;97.40;;;;;;5075399;28;20020;-66
2021/03/24 04:24:17;;;;;;;2.25;0.80;;;4.50;97.40;;;;;;5093187;28;20028;-66
2021/03/24 04:26:50;;;;;;;2.17;0.70;;;4.50;98.00;;;;;;5093102;28;20043;-66
2021/03/24 04:29:31;;;;;;;1.95;0.70;;;4.40;98.00;;;;;;5093510;28;20040;-66
2021/03/24 04:32:00;;;;;;;1.13;0.82;;;4.30;98.30;;;;;;5092977;28;20023;-67
2021/03/24 04:34:27;;;;;;;1.38;0.98;;;4.30;98.80;;;;;;5093358;28;20036;-66
2021/03/24 04:37:04;;;;;;;2.13;0.98;;;4.30;98.90;;;;;;5092775;28;20024;-66
2021/03/24 04:39:35;;;;;;;1.30;0.90;;;4.20;99.10;;;;;;5093265;28;20056;-66
2021/03/24 04:42:12;;;;;;;1.73;0.90;;;4.20;99.90;;;;;;5092800;28;20495;-67
2021/03/24 04:44:41;;;;;;;1.90;1.10;;;4.20;99.60;;;;;;5093342;28;20020;-65
2021/03/24 04:47:26;;;;;;;1.90;0.98;;;4.20;99.60;;;;;;5093248;28;20085;-66
2021/03/24 04:49:59;;;;;;;1.25;0.98;;;4.10;99.90;;;;;;5079387;28;20097;-66
2021/03/24 04:52:26;;;;;;;2.53;1.05;;;4.10;99.90;;;;;;5092816;28;20356;-66
2021/03/24 04:54:54;;;;;;;1.92;0.90;;;4.10;99.90;;;;;;5092631;28;20043;-66
2021/03/24 04:57:23;;;;;;;1.63;1.15;;;4.10;99.90;;;;;;5092583;28;20024;-66
2021/03/24 04:59:56;;;;;;;2.05;1.05;;;4.10;99.90;;;;;;5092838;28;20356;-66
2021/03/24 05:02:44;;;;;;;2.38;1.13;;;4.10;99.90;;;;;;5092470;28;20066;-66
2021/03/24 05:05:23;;;;;;;1.40;0.90;;;4.20;99.90;;;;;;5078790;28;20020;-67
2021/03/24 05:07:57;;;;;;;2.42;1.17;;;4.20;99.90;;;;;;5092861;28;20093;-66
2021/03/24 05:10:32;;;;;;;2.03;1.00;;;4.20;99.80;;;;;;5092220;28;20036;-66
2021/03/24 05:12:58;;;;;;;1.67;1.33;;;4.20;99.80;;;;;;5092302;28;20024;-66
2021/03/24 05:15:35;;;;;;;3.05;1.00;;;4.30;99.60;;;;;;5092014;28;20051;-66
2021/03/24 05:18:03;;;;;;;1.00;0.93;;;4.30;99.50;;;;;;5092417;28;20070;-66
2021/03/24 05:20:55;;;;;;;2.00;1.08;;;4.40;99.50;;;;;;5092324;28;20027;-66
2021/03/24 05:23:23;;;;;;;1.80;0.98;;;4.30;99.20;;;;;;5092080;28;20046;-66
2021/03/24 05:26:05;;;;;;;1.73;1.00;;;4.30;98.90;;;;;;5092301;28;20047;-66
2021/03/24 05:28:45;;;;;;;1.30;1.00;;;4.30;99.50;;;;;;5092029;28;20020;-65
2021/03/24 05:31:18;;;;;;;2.45;1.40;;;4.50;99.90;;;;;;5091918;28;20024;-70
2021/03/24 05:33:50;;;;;;;1.00;0.90;;;4.90;99.90;;;;;;5091791;28;20550;-71
2021/03/24 05:36:30;;;;;;;2.35;1.00;;;5.20;99.00;;;;;;5092133;28;20039;-73
2021/03/24 05:38:56;;;;;;;1.88;1.15;;;5.60;97.90;;;;;;5091324;28;20450;-68
2021/03/24 05:41:59;;;;;;;0.93;0.90;;;5.80;96.50;;;;;;5092088;28;20107;-70
2021/03/24 05:44:42;;;;;;;1.13;0.90;;;6.10;95.20;;;;;;5085055;28;20016;-67
2021/03/24 05:47:08;;;;;;;1.33;1.00;;;5.90;93.30;;;;;;5091233;28;20028;-70
2021/03/24 05:49:56;;;;;;;1.13;0.93;;;5.70;93.80;;;;;;5089306;28;20567;-69
2021/03/24 05:53:00;;;;;;;1.63;0.98;;;5.60;94.60;;;;;;5090449;28;20103;-69
2021/03/24 05:55:47;;;;;;;1.38;1.10;;;5.90;95.20;;;;;;5079962;28;20557;-68
2021/03/24 05:58:21;;;;;;;2.05;0.90;;;6.30;94.60;;;;;;5090700;28;21235;-68
2021/03/24 06:01:16;;;;;;;1.95;0.85;;;6.70;93.70;;;;;;5090927;28;20016;-68
2021/03/24 06:04:03;;;;;;;2.70;1.10;;;7.10;91.90;;;;;;5085961;28;20071;-69
2021/03/24 06:07:06;;;;;;;1.65;0.70;;;7.50;90.30;;;;;;5090561;28;20020;-69
2021/03/24 06:09:38;;;;;;;1.15;0.70;;;7.70;88.10;;;;;;5090730;28;20088;-68
2021/03/24 06:12:19;;;;;;;8.60;2.15;;;8.00;87.90;;;;;;5091578;28;20036;-67
2021/03/24 06:15:08;;;;;;;1.40;0.82;;;8.20;85.50;;;;;;5090766;28;20040;-69
2021/03/24 06:18:05;;;;;;;0.85;0.70;;;8.60;84.20;;;;;;5090894;28;20024;-69
2021/03/24 06:20:51;;;;;;;3.15;0.80;;;8.80;82.90;;;;;;5088925;28;20099;-69
2021/03/24 06:23:35;;;;;;;2.75;0.73;;;8.90;80.70;;;;;;5090779;28;20016;-69
2021/03/24 06:26:23;;;;;;;1.88;1.10;;;8.70;80.80;;;;;;5090203;28;20490;-69
2021/03/24 06:29:07;;;;;;;2.08;1.17;;;8.60;80.50;;;;;;5091310;28;20413;-70
2021/03/24 06:31:40;;;;;;;2.97;1.27;;;8.40;81.40;;;;;;5091507;28;20020;-68
2021/03/24 06:34:44;;;;;;;3.50;1.58;;;8.20;82.20;;;;;;5081776;28;20450;-69
2021/03/24 06:37:53;;;;;;;2.33;1.40;;;8.20;84.00;;;;;;5026579;28;20018;-69
2021/03/24 06:40:25;;;;;;;5.93;2.03;;;8.10;83.20;;;;;;5040845;28;20046;-70
2021/03/24 06:42:57;;;;;;;3.80;1.65;;;8.00;83.40;;;;;;5083962;28;20028;-70
2021/03/24 06:45:56;;;;;;;4.15;1.50;;;7.90;83.40;;;;;;5091227;28;20024;-70
2021/03/24 06:48:39;;;;;;;3.10;1.50;;;7.70;83.30;;;;;;5079194;28;20040;-68
2021/03/24 06:51:23;;;;;;;2.83;1.50;;;7.80;84.30;;;;;;5093749;28;20032;-68
2021/03/24 06:54:13;;;;;;;1.60;1.27;;;7.90;84.80;;;;;;5094928;28;20464;-68
2021/03/24 06:57:16;;;;;;;1.83;1.48;;;8.10;84.80;;;;;;5081449;28;20136;-68
2021/03/24 07:00:11;;;;;;;3.17;1.20;;;8.30;83.60;;;;;;5095140;28;20020;-69
2021/03/24 07:03:01;;;;;;;3.35;1.20;;;8.60;83.40;;;;;;5083808;28;20047;-69
2021/03/24 07:06:17;;;;;;;1.67;1.08;;;8.70;83.20;;;;;;5088327;28;20475;-69
2021/03/24 07:09:20;;;;;;;3.25;1.00;;;8.90;82.50;;;;;;5009136;28;20037;-69
2021/03/24 07:12:09;;;;;;;5.13;1.10;;;9.10;81.00;;;;;;5093341;28;20024;-69
2021/03/24 07:14:50;;;;;;;1.73;1.00;;;9.10;80.00;;;;;;5088448;28;20048;-70
2021/03/24 07:17:44;;;;;;;2.70;0.95;;;9.20;81.20;;;;;;5088925;28;20061;-69
2021/03/24 07:20:10;;;;;;;4.25;1.45;;;9.40;82.90;;;;;;5092227;28;20024;-70
2021/03/24 07:22:38;;;;;;;1.30;0.80;;;9.40;79.40;;;;;;5088600;28;20017;-69
2021/03/24 07:25:27;;;;;;;0.60;0.60;;;9.30;79.10;;;;;;5093591;28;20020;-70
2021/03/24 07:28:08;;;;;;;1.10;0.80;;;9.30;78.80;;;;;;5093942;28;20025;-69
2021/03/24 07:31:08;;;;;;;2.55;0.75;;;9.30;79.10;;;;;;5094253;28;20043;-66
2021/03/24 07:33:58;;;;;;;3.53;0.98;;;9.30;78.60;;;;;;5094107;28;20551;-68
2021/03/24 07:36:54;;;;;;;0.95;0.75;;;9.30;78.70;;;;;;5085653;28;20038;-69
2021/03/24 07:39:57;;;;;;;1.90;0.77;;;9.20;79.00;;;;;;5092042;28;20032;-68
2021/03/24 07:42:44;;;;;;;6.10;1.00;;;9.20;79.20;;;;;;5093621;28;20020;-74
2021/03/24 07:45:21;;;;;;;1.85;1.15;;;9.20;80.00;;;;;;5094129;28;20036;-72
2021/03/24 07:47:47;;;;;;;3.65;1.00;;;9.10;79.90;;;;;;5093713;28;20021;-72
2021/03/24 07:50:21;;;;;;;1.98;0.70;;;9.50;91.50;;;;;;5093896;28;20036;-74
2021/03/24 07:52:59;;;;;;;0.85;0.60;;;9.90;83.30;;;;;;5094077;28;20379;-76
2021/03/24 07:55:28;;;;;;;3.22;1.35;;;9.60;78.70;;;;;;5094046;28;20028;-73
2021/03/24 07:58:30;;;;;;;2.05;0.75;;;9.40;80.10;;;;;;5093698;28;20028;-70
2021/03/24 08:01:15;;;;;;;1.38;0.60;;;9.50;84.80;;;;;;5093663;28;20051;-76
2021/03/24 08:03:54;;;;;;;0.60;0.60;;;9.40;80.20;;;;;;5082109;28;20016;-71
2021/03/24 08:06:54;;;;;;;0.80;0.57;;;9.30;80.30;;;;;;5093692;28;20111;-71
2021/03/24 08:09:29;;;;;;;0.60;0.60;;;9.10;80.10;;;;;;5093292;28;20032;-71
2021/03/24 08:12:12;;;;;;;1.48;0.80;;;9.00;80.70;;;;;;5079617;28;20080;-71
2021/03/24 08:14:57;;;;;;;0.70;0.60;;;9.00;80.80;;;;;;5093371;28;20134;-71
2021/03/24 08:17:39;;;;;;;0.80;0.63;;;9.00;80.40;;;;;;5093413;28;20475;-71
2021/03/24 08:20:41;;;;;;;1.02;0.70;;;9.00;80.60;;;;;;5093396;28;20065;-70
2021/03/24 08:23:13;;;;;;;0.95;0.60;;;9.00;80.30;;;;;;5090858;28;20379;-71
2021/03/24 08:25:54;;;;;;;1.95;0.80;;;8.90;80.70;;;;;;5093149;28;20459;-71
2021/03/24 08:28:43;;;;;;;0.47;0.47;;;8.90;81.20;;;;;;5092922;28;20123;-71
2021/03/24 08:31:26;;;;;;;0.70;0.70;;;8.90;80.90;;;;;;5093434;28;20512;-71
2021/03/24 08:34:24;;;;;;;1.52;0.68;;;8.80;80.90;;;;;;5092949;28;20024;-71
2021/03/24 08:37:20;;;;;;;1.50;0.75;;;8.70;81.20;;;;;;5047963;28;20036;-73
2021/03/24 08:40:16;;;;;;;3.53;0.60;;;8.80;81.50;;;;;;5092494;28;20036;-71
2021/03/24 08:43:00;;;;;;;0.65;0.50;;;9.00;82.70;;;;;;5092812;28;20065;-69
2021/03/24 08:45:43;;;;;;;0.60;0.60;;;9.30;83.50;;;;;;5092650;28;20024;-70
2021/03/24 08:48:16;;;;;;;0.80;0.60;;;9.30;81.10;;;;;;5079281;28;20020;-70
2021/03/24 08:51:01;;;;;;;0.93;0.68;;;9.30;80.00;;;;;;5092482;28;20036;-74
2021/03/24 08:53:41;;;;;;;1.98;0.50;;;9.30;80.00;;;;;;5091206;28;20141;-73
2021/03/24 08:56:30;;;;;;;0.95;0.60;;;9.30;79.80;;;;;;5084398;28;20039;-73
2021/03/24 08:59:25;;;;;;;0.60;0.50;;;9.30;79.60;;;;;;5091013;28;20024;-73
2021/03/24 09:01:53;;;;;;;0.55;0.55;;;9.20;79.40;;;;;;5089652;28;20486;-73
2021/03/24 09:04:32;;;;;;;1.02;0.57;;;9.20;79.50;;;;;;5092211;28;20164;-73
2021/03/24 09:07:16;;;;;;;2.65;0.70;;;9.30;79.30;;;;;;5085757;28;20103;-73
2021/03/24 09:10:00;;;;;;;1.20;0.55;;;9.30;79.20;;;;;;5079110;28;20033;-73
2021/03/24 09:12:40;;;;;;;1.40;0.60;;;9.30;79.00;;;;;;5082163;28;20578;-73
2021/03/24 09:15:29;;;;;;;1.08;0.60;;;9.40;79.50;;;;;;5091986;28;20482;-75
2021/03/24 09:18:28;;;;;;;0.82;0.50;;;9.40;78.80;;;;;;5092345;28;20020;-69
2021/03/24 09:21:14;;;;;;;2.75;0.50;;;9.40;78.50;;;;;;5082255;28;20103;-76
2021/03/24 09:24:10;;;;;;;1.55;0.60;;;9.50;78.00;;;;;;5091871;28;20047;-70
2021/03/24 09:27:00;;;;;;;0.65;0.40;;;9.50;77.70;;;;;;5091801;28;20029;-70
2021/03/24 09:30:15;;;;;;;0.47;0.47;;;9.50;77.70;;;;;;5073961;28;20032;-72
2021/03/24 09:32:59;;;;;;;0.57;0.50;;;9.50;77.40;;;;;;5084181;28;20032;-73
2021/03/24 09:36:00;;;;;;;1.05;0.60;;;9.50;77.30;;;;;;5089382;28;20031;-73
2021/03/24 09:38:34;;;;;;;0.50;0.40;;;9.80;84.40;;;;;;5089741;28;20119;-72
2021/03/24 09:41:29;;;;;;;1.02;0.50;;;10.00;77.10;;;;;;5091919;28;20028;-73
2021/03/24 09:44:02;;;;;;;0.50;0.50;;;9.90;75.60;;;;;;5069000;28;20054;-72
2021/03/24 09:46:44;;;;;;;0.47;0.47;;;9.80;75.60;;;;;;5078453;28;20469;-71
2021/03/24 09:49:36;;;;;;;2.00;0.50;;;9.80;75.40;;;;;;5091865;28;20032;-71
2021/03/24 09:52:47;;;;;;;0.82;0.57;;;9.90;78.30;;;;;;5091767;28;20409;-72
2021/03/24 09:55:25;;;;;;;1.00;0.50;;;9.90;75.00;;;;;;5076034;28;20032;-71
2021/03/24 09:58:10;;;;;;;1.10;0.50;;;9.80;75.10;;;;;;5091862;28;20413;-72
2021/03/24 10:00:50;;;;;;;0.93;0.50;;;9.70;75.30;;;;;;5091826;28;20031;-71
2021/03/24 10:03:29;;;;;;;1.00;0.60;;;9.70;75.40;;;;;;5091847;28;20024;-76
2021/03/24 10:06:04;;;;;;;1.50;0.70;;;9.70;75.10;;;;;;5092106;28;20024;-85
2021/03/24 10:08:46;;;;;;;0.60;0.60;;;9.70;74.90;;;;;;5091028;28;20019;-75
2021/03/24 10:11:24;;;;;;;2.72;1.02;;;9.70;75.00;;;;;;5097301;28;20445;-76
2021/03/24 10:14:12;;;;;;;0.50;0.50;;;9.70;75.60;;;;;;5092236;28;20020;-72
2021/03/24 10:16:44;;;;;;;0.80;0.50;;;9.70;75.00;;;;;;5090823;28;20048;-72
2021/03/24 10:19:15;;;;;;;2.25;0.50;;;9.70;74.80;;;;;;5091419;28;20025;-72
2021/03/24 10:21:59;;;;;;;0.40;0.40;;;9.70;75.00;;;;;;5091508;28;20028;-72
2021/03/24 10:24:28;;;;;;;0.75;0.50;;;9.60;74.90;;;;;;5092824;28;20022;-72
2021/03/24 10:27:06;;;;;;;0.80;0.50;;;9.60;75.10;;;;;;5095757;28;20095;-72
2021/03/24 10:29:45;;;;;;;0.60;0.50;;;9.60;75.00;;;;;;5095557;28;20040;-74
2021/03/24 10:32:29;;;;;;;0.68;0.50;;;9.60;74.90;;;;;;5095492;28;20032;-71
2021/03/24 10:35:20;;;;;;;0.50;0.50;;;9.70;75.10;;;;;;5095224;28;20028;-70
2021/03/24 10:37:56;;;;;;;0.57;0.40;;;9.70;76.30;;;;;;5084349;28;20055;-71
2021/03/24 10:40:33;;;;;;;1.60;0.60;;;9.70;75.00;;;;;;5094793;28;20025;-71
2021/03/24 10:43:04;;;;;;;0.40;0.40;;;10.00;79.40;;;;;;5093606;28;20049;-72
2021/03/24 10:45:35;;;;;;;0.38;0.38;;;10.40;81.00;;;;;;5095511;28;20024;-73
2021/03/24 10:48:10;;;;;;;;;;;10.30;73.20;;;;;;5095675;28;20391;-72
2021/03/24 10:51:03;;;;;;;0.68;0.50;;;10.00;73.10;;;;;;5094826;28;19912;-72
2021/03/24 10:53:31;;;;;;;2.38;0.50;;;9.90;73.50;;;;;;5082851;28;20123;-72
2021/03/24 10:56:11;;;;;;;1.27;0.70;;;9.70;73.80;;;;;;5095157;28;20110;-72
2021/03/24 10:58:37;;;;;;;0.40;0.40;;;9.60;74.40;;;;;;5094804;28;20386;-72
2021/03/24 11:01:18;;;;;;;1.58;0.50;;;9.60;74.30;;;;;;5094708;28;20036;-72
2021/03/24 11:03:47;;;;;;;0.93;0.43;;;9.50;74.30;;;;;;5094817;28;20055;-72
2021/03/24 11:06:18;;;;;;;0.63;0.47;;;9.40;74.50;;;;;;5094998;28;20036;-72
2021/03/24 11:09:02;;;;;;;1.08;0.32;;;9.40;74.80;;;;;;5094742;28;20073;-72
2021/03/24 11:11:48;;;;;;;3.30;0.50;;;9.40;74.60;;;;;;5094413;28;20036;-72
2021/03/24 11:14:22;;;;;;;0.95;0.50;;;9.40;75.00;;;;;;5094906;28;20031;-72
2021/03/24 11:17:22;;;;;;;6.47;0.75;;;9.40;75.00;;;;;;5094509;28;20074;-72
2021/03/24 11:19:48;;;;;;;;;;;9.40;74.60;;;;;;5090674;28;20048;-72
2021/03/24 11:22:14;;;;;;;0.30;0.30;;;9.50;74.80;;;;;;5094714;28;19935;-72
2021/03/24 11:25:10;;;;;;;0.30;0.30;;;9.50;74.70;;;;;;5094572;28;20458;-72
2021/03/24 11:27:57;;;;;;;0.30;0.30;;;9.50;74.20;;;;;;5083469;28;20017;-72
2021/03/24 11:30:32;;;;;;;2.05;0.55;;;9.60;74.10;;;;;;5094013;28;20032;-72
2021/03/24 11:33:35;;;;;;;0.77;0.40;;;9.60;73.40;;;;;;5094381;28;20027;-72
2021/03/24 11:36:23;;;;;;;1.00;0.52;;;9.60;73.20;;;;;;5081933;28;20050;-72
2021/03/24 11:39:23;;;;;;;0.90;0.40;;;9.60;72.80;;;;;;5094067;28;20025;-72
2021/03/24 11:41:50;;;;;;;1.45;0.50;;;9.60;73.10;;;;;;5094346;28;20028;-73
2021/03/24 11:44:23;;;;;;;1.48;0.45;;;9.60;71.70;;;;;;5093996;28;20028;-73
2021/03/24 11:46:50;;;;;;;0.82;0.50;;;9.50;71.40;;;;;;5094522;28;20028;-74
2021/03/24 11:49:39;;;;;;;0.80;0.40;;;9.50;71.40;;;;;;5094357;28;20036;-73
2021/03/24 11:52:05;;;;;;;0.80;0.33;;;9.50;71.20;;;;;;5094106;28;20437;-74
2021/03/24 11:54:52;;;;;;;1.05;0.60;;;9.40;71.40;;;;;;5094035;28;20111;-73
2021/03/24 11:57:36;;;;;;;1.33;0.50;;;9.50;71.30;;;;;;5094081;28;20024;-73
2021/03/24 12:00:11;;;;;;;0.43;0.43;;;9.50;70.80;;;;;;5079981;28;20032;-73
2021/03/24 12:03:14;;;;;;;0.50;0.50;;;9.60;71.00;;;;;;5094101;28;20031;-73
2021/03/24 12:05:56;;;;;;;1.13;0.40;;;9.60;70.50;;;;;;5084463;28;20032;-74
2021/03/24 12:08:48;;;;;;;1.25;0.55;;;9.70;70.00;;;;;;5093875;28;20023;-74
2021/03/24 12:11:32;;;;;;;0.82;0.60;;;9.70;68.70;;;;;;5093971;28;20027;-73
2021/03/24 12:14:18;;;;;;;7.57;1.00;;;9.70;67.90;;;;;;5093603;28;20032;-73
2021/03/24 12:16:56;;;;;;;1.05;0.50;;;9.70;67.60;;;;;;5093212;28;20050;-73
2021/03/24 12:19:37;;;;;;;1.27;0.60;;;9.70;66.10;;;;;;5093375;28;20103;-73
2021/03/24 12:22:04;;;;;;;0.50;0.50;;;9.70;65.90;;;;;;5093523;28;20055;-73
2021/03/24 12:24:39;;;;;;;4.43;0.50;;;9.70;66.10;;;;;;5093162;28;20513;-73
2021/03/24 12:27:17;;;;;;;0.95;0.50;;;9.70;65.80;;;;;;5093268;28;20020;-73
2021/03/24 12:29:56;;;;;;;1.05;0.60;;;9.70;65.20;;;;;;5092936;28;20064;-73
2021/03/24 12:32:26;;;;;;;1.38;0.50;;;9.70;63.70;;;;;;5079254;28;20038;-73
2021/03/24 12:34:53;;;;;;;1.13;0.60;;;9.70;62.40;;;;;;5093403;28;20020;-73
2021/03/24 12:37:41;;;;;;;2.75;0.70;;;9.60;61.80;;;;;;5093009;28;20032;-73
2021/03/24 12:40:13;;;;;;;2.80;0.63;;;9.60;61.80;;;;;;5093047;28;20020;-73
2021/03/24 12:42:39;;;;;;;4.72;0.80;;;9.60;61.90;;;;;;5079811;28;20099;-73
2021/03/24 12:45:41;;;;;;;2.58;0.85;;;9.70;61.90;;;;;;5092864;28;20106;-73
2021/03/24 12:48:27;;;;;;;2.45;0.60;;;9.70;61.60;;;;;;5078923;28;20024;-73
2021/03/24 12:51:30;;;;;;;2.25;0.70;;;9.70;61.50;;;;;;5092613;28;20507;-73
2021/03/24 12:53:59;;;;;;;1.77;1.00;;;9.60;61.50;;;;;;5092761;28;20028;-74
2021/03/24 12:57:01;;;;;;;1.33;0.52;;;9.60;61.80;;;;;;5092656;28;20471;-74
2021/03/24 12:59:42;;;;;;;5.57;0.70;;;9.60;61.80;;;;;;5092556;28;20043;-73
2021/03/24 13:02:29;;;;;;;1.42;0.57;;;9.60;61.60;;;;;;5074479;28;20391;-74
2021/03/24 13:05:13;;;;;;;1.85;0.60;;;9.60;62.10;;;;;;5092791;28;20025;-74
2021/03/24 13:07:51;;;;;;;1.10;0.47;;;9.60;62.00;;;;;;5092461;28;20696;-73
2021/03/24 13:10:22;;;;;;;0.73;0.55;;;9.60;62.10;;;;;;5078903;28;20035;-73
2021/03/24 13:13:05;;;;;;;1.35;1.15;;;9.60;61.90;;;;;;5092875;28;20024;-73
2021/03/24 13:16:19;;;;;;;1.33;0.50;;;9.60;61.70;;;;;;5079447;28;20517;-73
2021/03/24 13:18:50;;;;;;;1.73;0.50;;;9.60;60.20;;;;;;5072971;28;20471;-74
2021/03/24 13:21:34;;;;;;;4.32;0.65;;;9.60;60.60;;;;;;5092648;28;20379;-73
2021/03/24 13:24:07;;;;;;;0.52;0.52;;;9.60;60.80;;;;;;5079634;28;20031;-73
2021/03/24 13:26:36;;;;;;;2.83;1.02;;;9.50;60.60;;;;;;5092077;28;20471;-73
2021/03/24 13:29:29;;;;;;;2.15;0.73;;;9.50;60.50;;;;;;5092240;28;20028;-73
2021/03/24 13:32:06;;;;;;;2.10;0.60;;;9.50;60.80;;;;;;5092567;28;20024;-74
2021/03/24 13:34:37;;;;;;;1.13;0.68;;;9.50;60.90;;;;;;5091969;28;20021;-73
2021/03/24 13:37:04;;;;;;;5.22;0.70;;;9.50;61.00;;;;;;5091986;28;20024;-73
2021/03/24 13:39:43;;;;;;;2.00;0.63;;;9.50;60.60;;;;;;5091888;28;20027;-73
2021/03/24 13:42:20;;;;;;;1.70;0.60;;;9.50;60.50;;;;;;5091937;28;20028;-73
2021/03/24 13:45:05;;;;;;;2.25;0.70;;;9.50;60.60;;;;;;5091607;28;20024;-73
2021/03/24 13:47:48;;;;;;;5.63;0.60;;;9.50;60.70;;;;;;5092208;28;20036;-73
2021/03/24 13:50:20;;;;;;;1.48;0.80;;;9.50;60.60;;;;;;5092086;28;20111;-73
2021/03/24 13:52:54;;;;;;;0.40;0.40;;;9.40;60.80;;;;;;5091493;28;20027;-73
2021/03/24 13:55:43;;;;;;;2.08;0.80;;;9.40;60.60;;;;;;5091945;28;20032;-73
2021/03/24 13:58:33;;;;;;;0.95;0.57;;;9.40;60.40;;;;;;5091682;28;20020;-73
2021/03/24 14:01:10;;;;;;;1.15;0.47;;;9.40;60.90;;;;;;5091515;28;20047;-73
2021/03/24 14:04:03;;;;;;;1.30;0.40;;;9.30;60.40;;;;;;5079300;28;20031;-73
2021/03/24 14:06:36;;;;;;;1.10;0.50;;;9.30;60.80;;;;;;5091745;28;20024;-73
2021/03/24 14:09:24;;;;;;;1.25;0.60;;;9.30;60.00;;;;;;5091377;28;20111;-73
2021/03/24 14:11:59;;;;;;;0.82;0.50;;;9.30;60.10;;;;;;5091673;28;20020;-73
2021/03/24 14:15:02;;;;;;;3.45;0.88;;;9.30;59.60;;;;;;5091850;28;20349;-73
2021/03/24 14:18:05;;;;;;;0.57;0.50;;;9.30;60.00;;;;;;5081134;28;20036;-76
2021/03/24 14:21:07;;;;;;;5.78;0.75;;;9.50;65.90;;;;;;5077993;28;20020;-76
2021/03/24 14:24:10;;;;;;;1.48;0.50;;;9.60;61.00;;;;;;5057487;28;20111;-72
2021/03/24 14:27:05;;;;;;;1.67;0.60;;;10.10;69.50;;;;;;5091400;28;20024;-72
2021/03/24 14:29:31;;;;;;;1.02;0.45;;;10.30;59.80;;;;;;5091563;28;20036;-72
2021/03/24 14:32:07;;;;;;;1.95;0.98;;;10.00;59.60;;;;;;5088484;28;20024;-71
2021/03/24 14:35:10;;;;;;;1.65;0.70;;;9.70;60.00;;;;;;5089430;28;20105;-74
2021/03/24 14:37:48;;;;;;;0.93;0.50;;;9.60;60.20;;;;;;5089970;28;20028;-73
2021/03/24 14:40:14;;;;;;;1.85;0.50;;;9.60;60.50;;;;;;5090876;28;20021;-75
2021/03/24 14:42:55;;;;;;;2.70;0.73;;;9.50;60.80;;;;;;5090420;28;20058;-76
2021/03/24 14:45:30;;;;;;;2.63;0.50;;;9.60;60.90;;;;;;5070756;28;20020;-76
2021/03/24 14:48:14;;;;;;;1.90;0.60;;;9.50;61.40;;;;;;5090893;28;20020;-74
2021/03/24 14:50:52;;;;;;;1.75;0.50;;;9.50;60.70;;;;;;5090635;28;20067;-73
2021/03/24 14:53:32;;;;;;;1.73;0.60;;;9.50;61.20;;;;;;5089804;28;20051;-74
2021/03/24 14:56:10;;;;;;;1.92;0.60;;;9.50;61.90;;;;;;5090041;28;20016;-73
2021/03/24 14:58:46;;;;;;;2.42;0.50;;;9.50;61.70;;;;;;5087647;28;20028;-75
2021/03/24 15:01:31;;;;;;;0.70;0.38;;;9.50;61.40;;;;;;5090497;28;20103;-74
2021/03/24 15:04:38;;;;;;;2.50;0.63;;;9.50;61.50;;;;;;5090238;28;20491;-73
2021/03/24 15:07:25;;;;;;;2.88;0.50;;;9.50;62.50;;;;;;4986864;28;20681;-73
2021/03/24 15:10:05;;;;;;;0.80;0.47;;;9.40;61.80;;;;;;4989213;28;20201;-73
2021/03/24 15:12:47;;;;;;;1.10;0.40;;;9.40;62.20;;;;;;5066140;28;20042;-73
2021/03/24 15:15:50;;;;;;;0.47;0.40;;;9.20;63.60;;;;;;5093582;28;20525;-72
2021/03/24 15:18:40;;;;;;;3.33;0.55;;;9.10;64.10;;;;;;5094792;28;20024;-73
2021/03/24 15:21:42;;;;;;;0.57;0.40;;;9.10;64.20;;;;;;5094756;28;20020;-71
2021/03/24 15:24:26;;;;;;;1.23;0.50;;;9.00;64.20;;;;;;5076692;28;20036;-73
2021/03/24 15:27:17;;;;;;;1.20;0.45;;;8.90;64.60;;;;;;5092094;28;20028;-72
2021/03/24 15:29:55;;;;;;;0.55;0.50;;;8.90;65.00;;;;;;5080581;28;20124;-73
2021/03/24 15:32:27;;;;;;;2.38;0.50;;;8.80;65.20;;;;;;5075789;28;20039;-72
2021/03/24 15:35:05;;;;;;;1.02;0.50;;;8.80;65.30;;;;;;5080621;28;20020;-73
2021/03/24 15:37:47;;;;;;;3.60;0.60;;;8.70;66.00;;;;;;5077484;28;20070;-71
2021/03/24 15:40:43;;;;;;;0.30;0.30;;;8.70;66.60;;;;;;5090481;28;20422;-69
2021/03/24 15:43:39;;;;;;;1.25;0.50;;;8.70;67.60;;;;;;5094036;28;20040;-67
2021/03/24 15:46:22;;;;;;;0.93;0.40;;;8.60;67.70;;;;;;5096264;28;20016;-74
2021/03/24 15:49:07;;;;;;;1.75;0.40;;;8.50;68.10;;;;;;5094264;28;20051;-74
2021/03/24 15:51:45;;;;;;;9.02;0.60;;;8.60;68.60;;;;;;5085663;28;20032;-73
2021/03/24 15:54:32;;;;;;;0.65;0.40;;;8.50;68.80;;;;;;5092653;28;20490;-71
2021/03/24 15:57:17;;;;;;;0.40;0.40;;;8.40;68.60;;;;;;5092919;28;20032;-70
2021/03/24 15:59:54;;;;;;;0.40;0.40;;;8.40;68.80;;;;;;5090437;28;20089;-70
2021/03/24 16:02:34;;;;;;;1.00;0.40;;;8.30;68.60;;;;;;5090387;28;20099;-70
2021/03/24 16:05:16;;;;;;;0.38;0.38;;;8.20;68.90;;;;;;5092845;28;20020;-71
2021/03/24 16:07:51;;;;;;;0.85;0.57;;;8.20;69.20;;;;;;5091867;28;20090;-70
2021/03/24 16:10:29;;;;;;;0.75;0.60;;;8.10;69.30;;;;;;5088434;28;20048;-70
2021/03/24 16:13:03;;;;;;;1.30;0.52;;;8.10;69.50;;;;;;5090728;28;20467;-70
2021/03/24 16:15:49;;;;;;;0.50;0.50;;;8.10;69.60;;;;;;5092559;28;20152;-69
2021/03/24 16:18:18;;;;;;;1.33;0.50;;;8.10;69.70;;;;;;5091929;28;20089;-72
2021/03/24 16:20:59;;;;;;;0.77;0.40;;;8.00;69.40;;;;;;5091867;28;20036;-69
2021/03/24 16:23:40;;;;;;;1.02;0.50;;;7.90;69.60;;;;;;5089134;28;20024;-69
2021/03/24 16:26:40;;;;;;;1.33;0.50;;;7.90;69.80;;;;;;5108578;28;20027;-69
2021/03/24 16:29:08;;;;;;;3.30;0.57;;;7.90;70.30;;;;;;5086953;28;20052;-68
2021/03/24 16:31:43;;;;;;;0.63;0.63;;;7.80;70.40;;;;;;5092670;28;20024;-68
2021/03/24 16:34:46;;;;;;;0.70;0.63;;;7.80;70.60;;;;;;5086255;28;20028;-68
2021/03/24 16:37:21;;;;;;;0.50;0.50;;;7.80;70.90;;;;;;5090696;28;20021;-69
2021/03/24 16:40:17;;;;;;;1.58;0.70;;;7.70;71.20;;;;;;5092596;28;20100;-69
2021/03/24 16:43:10;;;;;;;0.82;0.50;;;7.70;71.20;;;;;;5087110;28;20020;-69
2021/03/24 16:45:52;;;;;;;0.45;0.43;;;7.70;71.70;;;;;;5092633;28;20472;-68
2021/03/24 16:48:24;;;;;;;1.23;0.30;;;7.60;71.80;;;;;;5079407;28;20420;-68
2021/03/24 16:50:52;;;;;;;0.63;0.38;;;7.50;71.90;;;;;;5092475;28;20027;-68
2021/03/24 16:53:40;;;;;;;2.13;0.50;;;7.50;72.30;;;;;;5099673;28;20020;-70
2021/03/24 16:56:39;;;;;;;1.88;0.55;;;7.50;72.50;;;;;;5092543;28;20108;-70
2021/03/24 16:59:30;;;;;;;2.38;0.70;;;7.50;72.80;;;;;;5084445;28;20390;-69
2021/03/24 17:02:34;;;;;;;0.40;0.40;;;7.50;73.00;;;;;;5085616;28;20020;-69
2021/03/24 17:05:14;;;;;;;0.75;0.40;;;7.90;77.10;;;;;;5011922;28;20014;-70
2021/03/24 17:07:56;;;;;;;1.17;0.63;;;7.80;73.00;;;;;;5078211;28;20536;-70
2021/03/24 17:10:47;;;;;;;1.15;0.50;;;7.70;73.00;;;;;;5092158;28;20422;-70
2021/03/24 17:13:49;;;;;;;0.85;0.45;;;7.50;73.20;;;;;;5093497;28;20024;-69
2021/03/24 17:16:41;;;;;;;1.40;0.40;;;7.50;73.60;;;;;;5091893;28;20494;-69
2021/03/24 17:19:19;;;;;;;2.15;0.60;;;7.40;73.80;;;;;;5081375;28;20103;-69
2021/03/24 17:21:52;;;;;;;1.30;0.57;;;7.40;73.70;;;;;;5092186;28;20386;-69
2021/03/24 17:24:37;;;;;;;0.40;0.40;;;7.30;73.90;;;;;;5092255;28;20111;-69
2021/03/24 17:27:19;;;;;;;0.82;0.40;;;7.30;74.20;;;;;;5091945;28;20089;-69
2021/03/24 17:30:05;;;;;;;0.35;0.35;;;7.20;74.50;;;;;;5091941;28;20035;-69
2021/03/24 17:32:44;;;;;;;0.50;0.50;;;7.20;74.70;;;;;;5079622;28;20016;-70
2021/03/24 17:35:11;;;;;;;1.42;0.80;;;7.50;81.30;;;;;;5091285;28;20028;-70
2021/03/24 17:38:09;;;;;;;0.40;0.40;;;7.60;75.20;;;;;;5091964;28;20047;-71
2021/03/24 17:40:41;;;;;;;1.23;0.50;;;7.50;74.20;;;;;;5092016;28;20016;-72
2021/03/24 17:43:33;;;;;;;0.98;0.50;;;7.30;74.40;;;;;;5091956;28;20050;-73
2021/03/24 17:46:11;;;;;;;0.47;0.45;;;7.30;74.30;;;;;;5090813;28;20032;-71
2021/03/24 17:48:46;;;;;;;0.93;0.50;;;7.20;74.20;;;;;;5091944;28;20043;-71
2021/03/24 17:51:43;;;;;;;0.60;0.50;;;7.20;74.10;;;;;;5091472;28;20025;-71
2021/03/24 17:54:27;;;;;;;2.83;0.98;;;7.20;74.20;;;;;;5091379;28;20479;-74
2021/03/24 17:56:56;;;;;;;1.27;0.90;;;7.20;74.30;;;;;;5079755;28;20099;-68
2021/03/24 17:59:43;;;;;;;1.48;1.00;;;7.20;74.10;;;;;;5091101;28;20028;-69
2021/03/24 18:02:18;;;;;;;3.70;0.68;;;7.10;74.30;;;;;;5080412;28;20029;-69
2021/03/24 18:04:57;;;;;;;1.13;0.50;;;7.10;74.30;;;;;;5086488;28;20024;-70
2021/03/24 18:07:39;;;;;;;0.80;0.55;;;7.00;74.50;;;;;;5091401;28;20030;-68
2021/03/24 18:10:13;;;;;;;0.65;0.50;;;7.00;74.60;;;;;;5106906;28;20028;-69
2021/03/24 18:12:46;;;;;;;1.58;0.60;;;7.00;74.60;;;;;;5090912;28;20495;-68
2021/03/24 18:15:48;;;;;;;2.70;0.50;;;6.90;74.70;;;;;;5090924;28;20048;-68
2021/03/24 18:18:14;;;;;;;1.67;0.50;;;6.90;75.00;;;;;;4988287;28;20510;-69
2021/03/24 18:20:54;;;;;;;0.40;0.40;;;6.90;74.90;;;;;;5067887;28;20126;-69
2021/03/24 18:23:25;;;;;;;0.77;0.43;;;6.90;75.70;;;;;;5088328;28;20383;-69
2021/03/24 18:26:02;;;;;;;0.90;0.60;;;6.90;75.00;;;;;;5091388;28;20024;-70
2021/03/24 18:28:40;;;;;;;0.40;0.40;;;6.80;74.90;;;;;;5087674;28;20089;-70
2021/03/24 18:31:41;;;;;;;2.10;0.50;;;6.70;75.00;;;;;;5091470;28;20089;-69